Yona, Guam
Current Conditions -  °F | °C
As of 3:54 PM on Thursday 23 Oct 2014 (Local Time) from PGUM Reporting Station
Broken Clouds Broken Clouds  
Wind Chill: 85°   Ceiling: 4500
Heat Index: 97°   Visibility: 10mi
Dew Point: 78°   Wind: 9mph
Humidity: 80%   Direction: 70°ENE
Pressure: 29.78"   Gusts: NA
Location:  13.41°N, 144.77°E
Report Text: PGUM 230554Z 07008KT 10SM FEW019 SCT032 BKN045 29/26 A2978 RMK AO2 RAB24E39 SLP075 P0000 60011 T02940256 10311 20272 55005
Loading
Personal Weather Stations






























Interactive Weather Map
Tropical Storm Tracking
New forecast layout! Learn more

10-Day Weather Forecast

Advertisements
Track Severe Weather on mobile